sensor_id;sensor_type;location;lat;lon;timestamp;pressure;altitude;pressure_sealevel;temperature;humidity
65190;BME280;51777;53.570;9.984;2022-08-18T00:01:44;100879.88;;;20.63;89.01
65190;BME280;51777;53.570;9.984;2022-08-18T00:04:13;100872.56;;;20.65;89.32
65190;BME280;51777;53.570;9.984;2022-08-18T00:06:39;100879.81;;;20.70;88.48
65190;BME280;51777;53.570;9.984;2022-08-18T00:09:06;100879.81;;;20.70;88.42
65190;BME280;51777;53.570;9.984;2022-08-18T00:11:35;100879.22;;;20.74;88.27
65190;BME280;51777;53.570;9.984;2022-08-18T00:14:01;100882.28;;;20.71;88.83
65190;BME280;51777;53.570;9.984;2022-08-18T00:16:26;100878.44;;;20.67;88.32
65190;BME280;51777;53.570;9.984;2022-08-18T00:18:52;100880.25;;;20.67;88.57
65190;BME280;51777;53.570;9.984;2022-08-18T00:21:18;100885.88;;;20.70;88.62
65190;BME280;51777;53.570;9.984;2022-08-18T00:23:44;100874.97;;;20.73;88.84
65190;BME280;51777;53.570;9.984;2022-08-18T00:26:09;100874.56;;;20.76;88.38
65190;BME280;51777;53.570;9.984;2022-08-18T00:28:35;100874.56;;;20.76;88.48
65190;BME280;51777;53.570;9.984;2022-08-18T00:31:00;100873.75;;;20.76;88.80
65190;BME280;51777;53.570;9.984;2022-08-18T00:33:26;100872.94;;;20.75;89.40
65190;BME280;51777;53.570;9.984;2022-08-18T00:35:54;100868.91;;;20.73;89.02
65190;BME280;51777;53.570;9.984;2022-08-18T00:38:20;100863.03;;;20.71;89.12
65190;BME280;51777;53.570;9.984;2022-08-18T00:40:48;100869.72;;;20.67;89.41
65190;BME280;51777;53.570;9.984;2022-08-18T00:43:21;100860.84;;;20.68;90.24
65190;BME280;51777;53.570;9.984;2022-08-18T00:45:48;100867.50;;;20.70;90.21
65190;BME280;51777;53.570;9.984;2022-08-18T00:48:14;100858.81;;;20.70;90.68
65190;BME280;51777;53.570;9.984;2022-08-18T00:50:50;100862.44;;;20.69;90.82
65190;BME280;51777;53.570;9.984;2022-08-18T00:53:30;100861.44;;;20.70;90.86
65190;BME280;51777;53.570;9.984;2022-08-18T00:56:04;100849.53;;;20.67;91.22
65190;BME280;51777;53.570;9.984;2022-08-18T00:58:35;100854.19;;;20.65;91.37
65190;BME280;51777;53.570;9.984;2022-08-18T01:01:04;100858.63;;;20.65;91.82
65190;BME280;51777;53.570;9.984;2022-08-18T01:03:31;100862.28;;;20.64;92.49
65190;BME280;51777;53.570;9.984;2022-08-18T01:06:05;100855.19;;;20.64;92.49
65190;BME280;51777;53.570;9.984;2022-08-18T01:08:31;100864.47;;;20.67;92.29
65190;BME280;51777;53.570;9.984;2022-08-18T01:11:00;100864.69;;;20.65;92.63
65190;BME280;51777;53.570;9.984;2022-08-18T01:13:28;100864.91;;;20.64;92.67
65190;BME280;51777;53.570;9.984;2022-08-18T01:15:55;100866.13;;;20.61;92.94
65190;BME280;51777;53.570;9.984;2022-08-18T01:18:21;100865.53;;;20.59;93.32
65190;BME280;51777;53.570;9.984;2022-08-18T01:21:21;100864.91;;;20.57;94.02
65190;BME280;51777;53.570;9.984;2022-08-18T01:24:09;100853.00;;;20.55;94.32
65190;BME280;51777;53.570;9.984;2022-08-18T01:26:38;100854.03;;;20.53;94.03
65190;BME280;51777;53.570;9.984;2022-08-18T01:29:10;100859.50;;;20.52;94.06
65190;BME280;51777;53.570;9.984;2022-08-18T01:31:40;100847.00;;;20.47;94.57
65190;BME280;51777;53.570;9.984;2022-08-18T01:34:09;100857.69;;;20.46;95.06
65190;BME280;51777;53.570;9.984;2022-08-18T01:36:39;100861.75;;;20.48;94.88
65190;BME280;51777;53.570;9.984;2022-08-18T01:39:09;100856.06;;;20.51;95.34
65190;BME280;51777;53.570;9.984;2022-08-18T01:41:35;100855.03;;;20.52;94.42
65190;BME280;51777;53.570;9.984;2022-08-18T01:44:01;100852.63;;;20.51;94.48
65190;BME280;51777;53.570;9.984;2022-08-18T01:46:29;100850.59;;;20.53;94.97
65190;BME280;51777;53.570;9.984;2022-08-18T01:48:56;100857.66;;;20.52;94.92
65190;BME280;51777;53.570;9.984;2022-08-18T01:51:26;100859.69;;;20.50;94.96
65190;BME280;51777;53.570;9.984;2022-08-18T01:53:52;100854.25;;;20.45;94.93
65190;BME280;51777;53.570;9.984;2022-08-18T01:56:18;100853.66;;;20.43;95.14
65190;BME280;51777;53.570;9.984;2022-08-18T01:58:44;100862.56;;;20.42;95.54
65190;BME280;51777;53.570;9.984;2022-08-18T02:01:12;100857.28;;;20.42;96.04
65190;BME280;51777;53.570;9.984;2022-08-18T02:03:41;100858.28;;;20.41;96.24
65190;BME280;51777;53.570;9.984;2022-08-18T02:06:12;100853.03;;;20.41;96.44
65190;BME280;51777;53.570;9.984;2022-08-18T02:08:38;100852.84;;;20.43;96.45
65190;BME280;51777;53.570;9.984;2022-08-18T02:11:05;100844.34;;;20.41;96.53
65190;BME280;51777;53.570;9.984;2022-08-18T02:13:31;100851.25;;;20.35;96.76
65190;BME280;51777;53.570;9.984;2022-08-18T02:15:56;100856.88;;;20.32;97.59
65190;BME280;51777;53.570;9.984;2022-08-18T02:18:24;100856.09;;;20.32;96.86
65190;BME280;51777;53.570;9.984;2022-08-18T02:20:52;100853.47;;;20.32;96.71
65190;BME280;51777;53.570;9.984;2022-08-18T02:23:17;100846.59;;;20.31;97.33
65190;BME280;51777;53.570;9.984;2022-08-18T02:25:43;100848.63;;;20.29;96.77
65190;BME280;51777;53.570;9.984;2022-08-18T02:28:08;100849.63;;;20.28;95.93
65190;BME280;51777;53.570;9.984;2022-08-18T02:30:34;100846.41;;;20.26;96.08
65190;BME280;51777;53.570;9.984;2022-08-18T02:33:04;100846.41;;;20.26;96.24
65190;BME280;51777;53.570;9.984;2022-08-18T02:35:30;100846.22;;;20.27;96.73
65190;BME280;51777;53.570;9.984;2022-08-18T02:37:59;100846.00;;;20.29;96.34
65190;BME280;51777;53.570;9.984;2022-08-18T02:40:24;100848.03;;;20.27;96.04
65190;BME280;51777;53.570;9.984;2022-08-18T02:42:50;100845.03;;;20.23;95.60
65190;BME280;51777;53.570;9.984;2022-08-18T02:45:17;100840.78;;;20.22;95.32
65190;BME280;51777;53.570;9.984;2022-08-18T02:47:44;100840.16;;;20.20;95.16
65190;BME280;51777;53.570;9.984;2022-08-18T02:50:11;100844.38;;;20.21;95.32
65190;BME280;51777;53.570;9.984;2022-08-18T02:52:37;100832.91;;;20.22;95.09
65190;BME280;51777;53.570;9.984;2022-08-18T02:55:03;100840.78;;;20.22;94.42
65190;BME280;51777;53.570;9.984;2022-08-18T02:57:29;100840.16;;;20.20;94.47
65190;BME280;51777;53.570;9.984;2022-08-18T02:59:55;100839.56;;;20.18;94.13
65190;BME280;51777;53.570;9.984;2022-08-18T03:02:21;100844.59;;;20.19;94.13
65190;BME280;51777;53.570;9.984;2022-08-18T03:04:47;100842.41;;;20.16;94.04
65190;BME280;51777;53.570;9.984;2022-08-18T03:07:13;100845.03;;;20.16;94.05
65190;BME280;51777;53.570;9.984;2022-08-18T03:09:40;100848.44;;;20.17;93.76
65190;BME280;51777;53.570;9.984;2022-08-18T03:12:07;100845.81;;;20.17;94.01
65190;BME280;51777;53.570;9.984;2022-08-18T03:14:33;100841.59;;;20.16;94.06
65190;BME280;51777;53.570;9.984;2022-08-18T03:17:03;100831.88;;;20.16;94.31
65190;BME280;51777;53.570;9.984;2022-08-18T03:19:28;100838.97;;;20.16;93.97
65190;BME280;51777;53.570;9.984;2022-08-18T03:21:55;100840.41;;;20.12;93.97
65190;BME280;51777;53.570;9.984;2022-08-18T03:24:23;100848.28;;;20.12;93.89
65190;BME280;51777;53.570;9.984;2022-08-18T03:26:50;100844.03;;;20.11;93.70
65190;BME280;51777;53.570;9.984;2022-08-18T03:29:15;100850.31;;;20.10;94.24
65190;BME280;51777;53.570;9.984;2022-08-18T03:31:42;100845.66;;;20.12;93.79
65190;BME280;51777;53.570;9.984;2022-08-18T03:34:08;100855.72;;;20.15;93.39
65190;BME280;51777;53.570;9.984;2022-08-18T03:36:35;100858.16;;;20.16;94.08
65190;BME280;51777;53.570;9.984;2022-08-18T03:39:04;100865.22;;;20.16;93.15
65190;BME280;51777;53.570;9.984;2022-08-18T03:41:30;100867.84;;;20.16;92.89
65190;BME280;51777;53.570;9.984;2022-08-18T03:43:55;100864.19;;;20.17;93.53
65190;BME280;51777;53.570;9.984;2022-08-18T03:46:22;100866.22;;;20.15;92.58
65190;BME280;51777;53.570;9.984;2022-08-18T03:48:48;100862.00;;;20.14;92.44
65190;BME280;51777;53.570;9.984;2022-08-18T03:51:22;100865.03;;;20.11;92.11
65190;BME280;51777;53.570;9.984;2022-08-18T03:53:50;100871.91;;;20.12;92.12
65190;BME280;51777;53.570;9.984;2022-08-18T03:56:20;100864.22;;;20.10;92.18
65190;BME280;51777;53.570;9.984;2022-08-18T03:58:51;100882.19;;;20.13;92.60
65190;BME280;51777;53.570;9.984;2022-08-18T04:01:20;100882.41;;;20.12;92.14
65190;BME280;51777;53.570;9.984;2022-08-18T04:03:49;100884.81;;;20.13;92.23
65190;BME280;51777;53.570;9.984;2022-08-18T04:06:16;100879.78;;;20.12;91.49
65190;BME280;51777;53.570;9.984;2022-08-18T04:08:41;100877.53;;;20.15;91.93
65190;BME280;51777;53.570;9.984;2022-08-18T04:11:08;100879.34;;;20.15;91.59
65190;BME280;51777;53.570;9.984;2022-08-18T04:13:33;100870.25;;;20.17;91.84
65190;BME280;51777;53.570;9.984;2022-08-18T04:16:03;100876.91;;;20.20;92.23
65190;BME280;51777;53.570;9.984;2022-08-18T04:18:29;100872.28;;;20.22;92.08
65190;BME280;51777;53.570;9.984;2022-08-18T04:20:56;100871.88;;;20.25;91.72
65190;BME280;51777;53.570;9.984;2022-08-18T04:23:23;100864.00;;;20.25;91.18
65190;BME280;51777;53.570;9.984;2022-08-18T04:25:58;100871.88;;;20.25;91.33
65190;BME280;51777;53.570;9.984;2022-08-18T04:28:26;100866.19;;;20.28;91.48
65190;BME280;51777;53.570;9.984;2022-08-18T04:30:52;100876.06;;;20.33;91.09
65190;BME280;51777;53.570;9.984;2022-08-18T04:33:19;100872.84;;;20.37;91.67
65190;BME280;51777;53.570;9.984;2022-08-18T04:35:45;100866.78;;;20.43;91.73
65190;BME280;51777;53.570;9.984;2022-08-18T04:38:12;100869.41;;;20.43;92.08
65190;BME280;51777;53.570;9.984;2022-08-18T04:40:38;100861.31;;;20.45;92.00
65190;BME280;51777;53.570;9.984;2022-08-18T04:43:06;100870.22;;;20.44;92.50
65190;BME280;51777;53.570;9.984;2022-08-18T04:45:39;100864.75;;;20.45;92.59
65190;BME280;51777;53.570;9.984;2022-08-18T04:48:05;100868.59;;;20.49;92.17
65190;BME280;51777;53.570;9.984;2022-08-18T04:50:30;100874.84;;;20.55;92.07
65190;BME280;51777;53.570;9.984;2022-08-18T04:52:56;100877.03;;;20.65;91.51
65190;BME280;51777;53.570;9.984;2022-08-18T04:55:48;100872.34;;;20.73;91.07
65190;BME280;51777;53.570;9.984;2022-08-18T04:58:16;100882.22;;;20.78;91.70
65190;BME280;51777;53.570;9.984;2022-08-18T05:00:43;100888.28;;;20.85;91.14
65190;BME280;51777;53.570;9.984;2022-08-18T05:03:10;100876.75;;;20.86;90.80
65190;BME280;51777;53.570;9.984;2022-08-18T05:05:35;100881.56;;;20.89;90.34
65190;BME280;51777;53.570;9.984;2022-08-18T05:08:01;100885.38;;;20.93;90.89
65190;BME280;51777;53.570;9.984;2022-08-18T05:10:26;100892.25;;;20.94;90.14
65190;BME280;51777;53.570;9.984;2022-08-18T05:12:52;100890.25;;;20.96;90.22
65190;BME280;51777;53.570;9.984;2022-08-18T05:15:18;100884.56;;;20.99;89.85
65190;BME280;51777;53.570;9.984;2022-08-18T05:17:43;100880.47;;;21.03;90.22
65190;BME280;51777;53.570;9.984;2022-08-18T05:20:09;100876.41;;;21.07;89.23
65190;BME280;51777;53.570;9.984;2022-08-18T05:22:40;100883.91;;;21.10;89.52
65190;BME280;51777;53.570;9.984;2022-08-18T05:25:08;100884.66;;;21.18;88.88
65190;BME280;51777;53.570;9.984;2022-08-18T05:27:35;100885.84;;;21.22;88.04
65190;BME280;51777;53.570;9.984;2022-08-18T05:30:02;100892.91;;;21.28;88.00
65190;BME280;51777;53.570;9.984;2022-08-18T05:32:28;100894.91;;;21.32;87.43
65190;BME280;51777;53.570;9.984;2022-08-18T05:34:57;100894.06;;;21.38;87.64
65190;BME280;51777;53.570;9.984;2022-08-18T05:37:28;100889.97;;;21.43;87.73
65190;BME280;51777;53.570;9.984;2022-08-18T05:40:02;100892.81;;;21.41;87.04
65190;BME280;51777;53.570;9.984;2022-08-18T05:42:30;100896.47;;;21.40;87.42
65190;BME280;51777;53.570;9.984;2022-08-18T05:44:58;100898.28;;;21.46;87.29
65190;BME280;51777;53.570;9.984;2022-08-18T05:47:25;100898.44;;;21.51;87.62
65190;BME280;51777;53.570;9.984;2022-08-18T05:49:54;100890.91;;;21.55;87.30
65190;BME280;51777;53.570;9.984;2022-08-18T05:52:32;100884.00;;;21.60;86.83
65190;BME280;51777;53.570;9.984;2022-08-18T05:55:14;100886.63;;;21.60;86.91
65190;BME280;51777;53.570;9.984;2022-08-18T05:58:04;100887.47;;;21.54;86.36
65190;BME280;51777;53.570;9.984;2022-08-18T06:00:31;100895.63;;;21.46;87.11
65190;BME280;51777;53.570;9.984;2022-08-18T06:03:15;100891.47;;;21.32;88.03
65190;BME280;51777;53.570;9.984;2022-08-18T06:06:02;100899.41;;;21.25;88.91
65190;BME280;51777;53.570;9.984;2022-08-18T06:08:39;100893.75;;;21.22;89.01
65190;BME280;51777;53.570;9.984;2022-08-18T06:11:06;100900.03;;;21.14;89.60
65190;BME280;51777;53.570;9.984;2022-08-18T06:13:39;100894.66;;;21.02;90.44
65190;BME280;51777;53.570;9.984;2022-08-18T06:16:13;100884.56;;;20.93;91.85
65190;BME280;51777;53.570;9.984;2022-08-18T06:32:57;100917.81;;;21.25;91.18
65190;BME280;51777;53.570;9.984;2022-08-18T06:35:33;100914.00;;;21.15;91.57
65190;BME280;51777;53.570;9.984;2022-08-18T06:41:22;100923.56;;;21.02;92.42
65190;BME280;51777;53.570;9.984;2022-08-18T06:44:28;100939.88;;;21.18;91.94
65190;BME280;51777;53.570;9.984;2022-08-18T06:47:19;100937.44;;;21.16;91.16
65190;BME280;51777;53.570;9.984;2022-08-18T06:54:52;100941.88;;;20.71;95.12
65190;BME280;51777;53.570;9.984;2022-08-18T06:57:37;100943.22;;;20.93;94.54
65190;BME280;51777;53.570;9.984;2022-08-18T07:00:25;100939.66;;;20.68;95.63
65190;BME280;51777;53.570;9.984;2022-08-18T07:02:53;100944.31;;;20.66;95.57
65190;BME280;51777;53.570;9.984;2022-08-18T07:05:31;100941.56;;;20.47;97.05
65190;BME280;51777;53.570;9.984;2022-08-18T07:08:29;100947.00;;;20.46;98.07
65190;BME280;51777;53.570;9.984;2022-08-18T07:13:39;100955.00;;;20.84;97.49
65190;BME280;51777;53.570;9.984;2022-08-18T07:16:22;100958.31;;;21.11;95.48
65190;BME280;51777;53.570;9.984;2022-08-18T07:18:48;100959.50;;;21.15;94.16
65190;BME280;51777;53.570;9.984;2022-08-18T07:21:32;100964.50;;;20.85;95.19
65190;BME280;51777;53.570;9.984;2022-08-18T07:24:08;100961.91;;;20.59;96.10
65190;BME280;51777;53.570;9.984;2022-08-18T07:27:01;100967.41;;;20.50;97.55
65190;BME280;51777;53.570;9.984;2022-08-18T07:29:36;100965.97;;;20.55;97.51
65190;BME280;51777;53.570;9.984;2022-08-18T07:32:15;100966.78;;;20.62;96.56
65190;BME280;51777;53.570;9.984;2022-08-18T07:34:46;100968.44;;;20.49;96.95
65190;BME280;51777;53.570;9.984;2022-08-18T07:42:50;100977.50;;;20.27;97.72
65190;BME280;51777;53.570;9.984;2022-08-18T07:45:22;100972.03;;;20.09;98.18
65190;BME280;51777;53.570;9.984;2022-08-18T07:47:54;100975.69;;;20.08;98.87
65190;BME280;51777;53.570;9.984;2022-08-18T07:50:23;100970.84;;;20.11;99.49
65190;BME280;51777;53.570;9.984;2022-08-18T07:53:10;100976.47;;;20.21;98.72
65190;BME280;51777;53.570;9.984;2022-08-18T07:55:40;100982.16;;;20.25;98.78
65190;BME280;51777;53.570;9.984;2022-08-18T08:07:54;100997.31;;;20.43;98.50
65190;BME280;51777;53.570;9.984;2022-08-18T08:12:59;100998.31;;;20.15;100.00
65190;BME280;51777;53.570;9.984;2022-08-18T08:15:42;100999.53;;;20.26;100.00
65190;BME280;51777;53.570;9.984;2022-08-18T08:18:32;100997.50;;;20.41;99.71
65190;BME280;51777;53.570;9.984;2022-08-18T08:21:05;100996.50;;;20.62;99.26
65190;BME280;51777;53.570;9.984;2022-08-18T08:23:53;100999.69;;;20.77;97.99
65190;BME280;51777;53.570;9.984;2022-08-18T08:31:53;100994.28;;;21.24;91.96
65190;BME280;51777;53.570;9.984;2022-08-18T08:37:18;100997.03;;;21.42;91.99
65190;BME280;51777;53.570;9.984;2022-08-18T08:42:22;100997.78;;;21.87;86.10
65190;BME280;51777;53.570;9.984;2022-08-18T08:44:54;100997.09;;;21.67;87.52
65190;BME280;51777;53.570;9.984;2022-08-18T08:50:06;100997.25;;;22.04;87.18
65190;BME280;51777;53.570;9.984;2022-08-18T08:55:40;100996.38;;;22.60;82.67
65190;BME280;51777;53.570;9.984;2022-08-18T08:58:15;100999.53;;;22.68;81.80
65190;BME280;51777;53.570;9.984;2022-08-18T09:00:44;101012.34;;;22.65;80.64
65190;BME280;51777;53.570;9.984;2022-08-18T09:14:36;101006.34;;;22.76;81.21
65190;BME280;51777;53.570;9.984;2022-08-18T09:23:11;101015.06;;;22.58;82.08
65190;BME280;51777;53.570;9.984;2022-08-18T09:30:52;100994.31;;;22.87;82.52
65190;BME280;51777;53.570;9.984;2022-08-18T09:38:57;101000.59;;;22.85;81.22
65190;BME280;51777;53.570;9.984;2022-08-18T09:41:58;100994.03;;;23.25;80.56
65190;BME280;51777;53.570;9.984;2022-08-18T09:57:40;101009.44;;;23.99;76.25
65190;BME280;51777;53.570;9.984;2022-08-18T10:07:44;101009.50;;;24.58;72.07
65190;BME280;51777;53.570;9.984;2022-08-18T10:10:21;101005.38;;;24.39;71.40
65190;BME280;51777;53.570;9.984;2022-08-18T10:20:58;100996.06;;;24.59;72.54
65190;BME280;51777;53.570;9.984;2022-08-18T10:23:48;101004.34;;;26.56;66.83
65190;BME280;51777;53.570;9.984;2022-08-18T10:39:43;101015.50;;;25.17;67.54
65190;BME280;51777;53.570;9.984;2022-08-18T10:44:40;101009.94;;;24.67;70.94
65190;BME280;51777;53.570;9.984;2022-08-18T10:47:09;101017.25;;;25.00;70.76
65190;BME280;51777;53.570;9.984;2022-08-18T10:49:49;101015.28;;;25.18;70.27
65190;BME280;51777;53.570;9.984;2022-08-18T10:55:31;101031.53;;;25.39;68.61
65190;BME280;51777;53.570;9.984;2022-08-18T11:01:13;101029.16;;;26.88;63.53
65190;BME280;51777;53.570;9.984;2022-08-18T11:06:26;101034.34;;;28.35;58.09
65190;BME280;51777;53.570;9.984;2022-08-18T11:08:56;101034.16;;;28.09;56.58
65190;BME280;51777;53.570;9.984;2022-08-18T11:11:34;101027.47;;;27.75;58.50
65190;BME280;51777;53.570;9.984;2022-08-18T11:19:27;101037.75;;;28.73;54.22
65190;BME280;51777;53.570;9.984;2022-08-18T11:21:53;101031.16;;;28.33;55.00
65190;BME280;51777;53.570;9.984;2022-08-18T11:24:25;101030.84;;;27.97;57.35
65190;BME280;51777;53.570;9.984;2022-08-18T11:26:59;101044.50;;;29.83;51.96
65190;BME280;51777;53.570;9.984;2022-08-18T11:29:39;101027.81;;;29.05;53.00
65190;BME280;51777;53.570;9.984;2022-08-18T11:32:18;101016.31;;;28.05;56.47
65190;BME280;51777;53.570;9.984;2022-08-18T11:34:48;101030.47;;;29.10;55.05
65190;BME280;51777;53.570;9.984;2022-08-18T11:39:49;101032.22;;;29.67;50.90
65190;BME280;51777;53.570;9.984;2022-08-18T11:42:19;101036.38;;;31.40;48.34
65190;BME280;51777;53.570;9.984;2022-08-18T11:44:53;101041.22;;;33.25;43.82
65190;BME280;51777;53.570;9.984;2022-08-18T11:47:21;101044.66;;;32.64;43.97
65190;BME280;51777;53.570;9.984;2022-08-18T11:50:25;101036.72;;;31.23;46.63
65190;BME280;51777;53.570;9.984;2022-08-18T11:52:52;101030.00;;;30.61;48.02
65190;BME280;51777;53.570;9.984;2022-08-18T11:55:28;101019.69;;;31.09;47.92
65190;BME280;51777;53.570;9.984;2022-08-18T11:57:55;101026.94;;;31.87;46.24
65190;BME280;51777;53.570;9.984;2022-08-18T12:03:18;101031.16;;;35.61;35.64
65190;BME280;51777;53.570;9.984;2022-08-18T12:05:56;101032.75;;;36.55;34.98
65190;BME280;51777;53.570;9.984;2022-08-18T12:08:34;101029.47;;;36.75;33.04
65190;BME280;51777;53.570;9.984;2022-08-18T12:11:17;101008.13;;;33.35;38.31
65190;BME280;51777;53.570;9.984;2022-08-18T12:13:47;101006.81;;;32.47;41.25
65190;BME280;51777;53.570;9.984;2022-08-18T12:16:39;101016.66;;;35.71;36.67
65190;BME280;51777;53.570;9.984;2022-08-18T12:19:07;101022.88;;;37.51;32.11
65190;BME280;51777;53.570;9.984;2022-08-18T12:21:41;101007.72;;;35.17;35.50
65190;BME280;51777;53.570;9.984;2022-08-18T12:24:24;101006.00;;;33.83;38.37
65190;BME280;51777;53.570;9.984;2022-08-18T12:26:50;101005.06;;;32.61;40.58
65190;BME280;51777;53.570;9.984;2022-08-18T12:29:17;101011.94;;;32.67;40.59
65190;BME280;51777;53.570;9.984;2022-08-18T12:31:46;101000.44;;;31.56;43.38
65190;BME280;51777;53.570;9.984;2022-08-18T12:34:12;101002.63;;;31.05;45.69
65190;BME280;51777;53.570;9.984;2022-08-18T12:36:39;100991.34;;;30.53;46.80
65190;BME280;51777;53.570;9.984;2022-08-18T12:39:05;100993.81;;;30.24;45.93
65190;BME280;51777;53.570;9.984;2022-08-18T12:41:30;100983.44;;;29.87;47.40
65190;BME280;51777;53.570;9.984;2022-08-18T12:43:56;100986.38;;;29.86;47.75
65190;BME280;51777;53.570;9.984;2022-08-18T12:46:22;100975.72;;;29.70;48.59
65190;BME280;51777;53.570;9.984;2022-08-18T12:48:48;100985.69;;;32.69;42.78
65190;BME280;51777;53.570;9.984;2022-08-18T12:51:14;100989.00;;;35.48;36.37
65190;BME280;51777;53.570;9.984;2022-08-18T12:53:40;100994.25;;;37.67;32.59
65190;BME280;51777;53.570;9.984;2022-08-18T12:56:29;101005.59;;;38.96;29.68
65190;BME280;51777;53.570;9.984;2022-08-18T12:58:55;101000.78;;;39.68;29.22
65190;BME280;51777;53.570;9.984;2022-08-18T13:01:21;100997.88;;;40.70;27.90
65190;BME280;51777;53.570;9.984;2022-08-18T13:03:50;101004.38;;;41.65;26.43
65190;BME280;51777;53.570;9.984;2022-08-18T13:06:23;101009.50;;;42.49;24.78
65190;BME280;51777;53.570;9.984;2022-08-18T13:08:49;101005.00;;;42.22;24.47
65190;BME280;51777;53.570;9.984;2022-08-18T13:11:17;101002.00;;;42.27;24.51
65190;BME280;51777;53.570;9.984;2022-08-18T13:13:43;100995.56;;;41.84;24.15
65190;BME280;51777;53.570;9.984;2022-08-18T13:16:11;101008.16;;;42.24;24.45
65190;BME280;51777;53.570;9.984;2022-08-18T13:18:37;101010.28;;;41.68;25.22
65190;BME280;51777;53.570;9.984;2022-08-18T13:21:11;101014.94;;;42.49;23.83
65190;BME280;51777;53.570;9.984;2022-08-18T13:23:37;101006.78;;;42.49;23.41
65190;BME280;51777;53.570;9.984;2022-08-18T13:26:08;101019.75;;;43.11;23.55
65190;BME280;51777;53.570;9.984;2022-08-18T13:28:36;101013.16;;;43.12;22.75
65190;BME280;51777;53.570;9.984;2022-08-18T13:31:02;101015.22;;;44.06;21.88
65190;BME280;51777;53.570;9.984;2022-08-18T13:33:28;101013.88;;;43.51;21.37
65190;BME280;51777;53.570;9.984;2022-08-18T13:35:54;100992.84;;;41.84;23.84
65190;BME280;51777;53.570;9.984;2022-08-18T13:38:22;100978.16;;;39.84;26.67
65190;BME280;51777;53.570;9.984;2022-08-18T13:40:49;100966.81;;;37.56;30.03
65190;BME280;51777;53.570;9.984;2022-08-18T13:43:17;100964.44;;;38.10;29.53
65190;BME280;51777;53.570;9.984;2022-08-18T13:45:43;100956.69;;;39.91;27.07
65190;BME280;51777;53.570;9.984;2022-08-18T13:48:11;100970.09;;;41.29;25.79
65190;BME280;51777;53.570;9.984;2022-08-18T13:50:36;100979.28;;;42.35;24.09
65190;BME280;51777;53.570;9.984;2022-08-18T13:53:24;100966.28;;;40.26;25.76
65190;BME280;51777;53.570;9.984;2022-08-18T13:55:50;100956.44;;;38.73;28.62
65190;BME280;51777;53.570;9.984;2022-08-18T13:58:16;100953.25;;;37.01;31.11
65190;BME280;51777;53.570;9.984;2022-08-18T14:00:43;100944.91;;;35.13;34.85
65190;BME280;51777;53.570;9.984;2022-08-18T14:03:09;100949.28;;;34.59;35.83
65190;BME280;51777;53.570;9.984;2022-08-18T14:05:35;100940.63;;;33.47;38.01
65190;BME280;51777;53.570;9.984;2022-08-18T14:08:01;100941.25;;;33.06;39.40
65190;BME280;51777;53.570;9.984;2022-08-18T14:10:27;100943.09;;;32.92;39.87
65190;BME280;51777;53.570;9.984;2022-08-18T14:12:55;100949.78;;;33.27;39.02
65190;BME280;51777;53.570;9.984;2022-08-18T14:15:21;100947.97;;;32.66;40.57
65190;BME280;51777;53.570;9.984;2022-08-18T14:17:47;100944.81;;;32.83;39.77
65190;BME280;51777;53.570;9.984;2022-08-18T14:20:13;100938.44;;;32.36;40.83
65190;BME280;51777;53.570;9.984;2022-08-18T14:22:58;100934.78;;;32.51;40.15
65190;BME280;51777;53.570;9.984;2022-08-18T14:25:43;100931.59;;;32.01;41.33
65190;BME280;51777;53.570;9.984;2022-08-18T14:28:29;100922.09;;;31.90;41.57
65190;BME280;51777;53.570;9.984;2022-08-18T14:30:55;100942.66;;;34.15;38.25
65190;BME280;51777;53.570;9.984;2022-08-18T14:33:23;100952.16;;;36.85;33.16
65190;BME280;51777;53.570;9.984;2022-08-18T14:35:49;100964.56;;;38.73;29.77
65190;BME280;51777;53.570;9.984;2022-08-18T14:38:14;100953.41;;;36.22;32.16
65190;BME280;51777;53.570;9.984;2022-08-18T14:40:41;100956.19;;;33.64;37.89
65190;BME280;51777;53.570;9.984;2022-08-18T14:43:08;100966.19;;;32.88;39.60
65190;BME280;51777;53.570;9.984;2022-08-18T14:45:34;100952.75;;;32.21;41.06
65190;BME280;51777;53.570;9.984;2022-08-18T14:48:00;100962.56;;;31.78;41.34
65190;BME280;51777;53.570;9.984;2022-08-18T14:50:26;100973.59;;;34.40;36.65
65190;BME280;51777;53.570;9.984;2022-08-18T14:52:55;100961.25;;;33.65;37.82
65190;BME280;51777;53.570;9.984;2022-08-18T14:55:20;100961.75;;;32.97;39.85
65190;BME280;51777;53.570;9.984;2022-08-18T14:57:46;100973.50;;;35.31;35.94
65190;BME280;51777;53.570;9.984;2022-08-18T15:00:14;100974.69;;;34.39;36.95
65190;BME280;51777;53.570;9.984;2022-08-18T15:02:41;100971.09;;;34.02;37.28
65190;BME280;51777;53.570;9.984;2022-08-18T15:05:09;100964.91;;;35.07;35.67
65190;BME280;51777;53.570;9.984;2022-08-18T15:07:35;100979.19;;;36.71;33.00
65190;BME280;51777;53.570;9.984;2022-08-18T15:10:08;100973.53;;;34.95;35.76
65190;BME280;51777;53.570;9.984;2022-08-18T15:12:34;100974.84;;;33.55;38.42
65190;BME280;51777;53.570;9.984;2022-08-18T15:15:01;100973.03;;;34.79;37.38
65190;BME280;51777;53.570;9.984;2022-08-18T15:17:26;100984.91;;;34.23;38.01
65190;BME280;51777;53.570;9.984;2022-08-18T15:19:53;100978.38;;;33.83;37.99
65190;BME280;51777;53.570;9.984;2022-08-18T15:22:19;100990.28;;;34.64;36.96
65190;BME280;51777;53.570;9.984;2022-08-18T15:25:04;100992.84;;;36.17;34.32
65190;BME280;51777;53.570;9.984;2022-08-18T15:27:49;101002.28;;;37.29;32.07
65190;BME280;51777;53.570;9.984;2022-08-18T15:30:14;100998.59;;;37.51;32.16
65190;BME280;51777;53.570;9.984;2022-08-18T15:32:41;101003.84;;;36.87;32.49
65190;BME280;51777;53.570;9.984;2022-08-18T15:35:08;101002.88;;;36.91;33.02
65190;BME280;51777;53.570;9.984;2022-08-18T15:37:45;101001.59;;;35.70;34.38
65190;BME280;51777;53.570;9.984;2022-08-18T15:40:21;100989.50;;;34.36;36.98